createdAt,value
2023-02-18T00:01:15.876Z,100.00
2023-02-18T00:04:02.119Z,100.00
2023-02-18T00:06:48.480Z,100.00
2023-02-18T00:09:34.621Z,100.00
2023-02-18T00:12:20.875Z,100.00
2023-02-18T00:15:07.921Z,100.00
2023-02-18T00:17:54.160Z,100.00
2023-02-18T00:20:40.389Z,100.00
2023-02-18T00:23:27.064Z,100.00
2023-02-18T00:26:15.285Z,100.00
2023-02-18T00:29:02.468Z,100.00
2023-02-18T00:31:48.943Z,100.00
2023-02-18T00:34:35.818Z,100.00
2023-02-18T00:37:23.502Z,100.00
2023-02-18T00:40:10.649Z,100.00
2023-02-18T00:42:57.139Z,100.00
2023-02-18T00:45:43.589Z,100.00
2023-02-18T00:48:29.808Z,100.00
2023-02-18T00:51:16.644Z,100.00
2023-02-18T00:54:02.802Z,100.00
2023-02-18T00:56:49.437Z,100.00
2023-02-18T00:59:35.773Z,100.00
2023-02-18T01:02:21.895Z,100.00
2023-02-18T01:05:08.416Z,100.00
2023-02-18T01:07:55.191Z,99.35
2023-02-18T01:10:44.781Z,99.78
2023-02-18T01:13:31.616Z,99.81
2023-02-18T01:16:19.398Z,99.43
2023-02-18T01:19:06.127Z,99.63
2023-02-18T01:21:52.351Z,99.35
2023-02-18T01:24:38.671Z,99.77
2023-02-18T01:27:24.897Z,99.93
2023-02-18T01:30:15.433Z,99.15
2023-02-18T01:33:02.121Z,99.30
2023-02-18T01:35:48.925Z,99.14
2023-02-18T01:38:35.799Z,98.77
2023-02-18T01:41:22.165Z,98.55
2023-02-18T01:44:15.875Z,97.84
2023-02-18T01:47:04.916Z,98.17
2023-02-18T01:49:53.203Z,98.22
2023-02-18T01:52:39.766Z,98.99
2023-02-18T01:55:27.371Z,99.64
2023-02-18T01:58:14.659Z,100.00
2023-02-18T02:01:01.026Z,100.00
2023-02-18T02:03:47.523Z,100.00
2023-02-18T02:06:34.973Z,100.00
2023-02-18T02:09:23.918Z,100.00
2023-02-18T02:12:43.968Z,100.00
2023-02-18T02:15:49.251Z,100.00
2023-02-18T02:18:48.055Z,100.00
2023-02-18T02:22:07.398Z,100.00
2023-02-18T02:25:15.753Z,100.00
2023-02-18T02:28:37.428Z,100.00
2023-02-18T02:31:39.177Z,100.00
2023-02-18T02:34:46.679Z,100.00
2023-02-18T02:37:59.314Z,100.00
2023-02-18T02:41:00.559Z,100.00
2023-02-18T02:44:01.421Z,100.00
2023-02-18T02:46:52.842Z,99.48
2023-02-18T02:49:50.278Z,99.78
2023-02-18T02:53:02.223Z,99.57
2023-02-18T02:55:48.850Z,99.11
2023-02-18T02:58:38.626Z,98.27
2023-02-18T03:01:37.821Z,97.12
2023-02-18T03:04:32.665Z,96.65
2023-02-18T03:07:44.376Z,96.33
2023-02-18T03:10:47.722Z,96.42
2023-02-18T03:14:04.654Z,96.21
2023-02-18T03:17:05.575Z,96.63
2023-02-18T03:20:06.141Z,97.02
2023-02-18T03:22:55.631Z,97.97
2023-02-18T03:25:42.491Z,98.17
2023-02-18T03:28:32.231Z,98.36
2023-02-18T03:31:26.218Z,98.97
2023-02-18T03:34:20.848Z,100.00
2023-02-18T03:37:09.851Z,100.00
2023-02-18T03:39:59.823Z,100.00
2023-02-18T03:42:46.876Z,100.00
2023-02-18T03:45:33.425Z,100.00
2023-02-18T03:48:19.935Z,100.00
2023-02-18T03:51:06.064Z,100.00
2023-02-18T03:53:52.555Z,100.00
2023-02-18T03:56:38.708Z,100.00
2023-02-18T03:59:24.960Z,100.00
2023-02-18T04:02:11.150Z,100.00
2023-02-18T04:04:57.651Z,100.00
2023-02-18T04:07:43.966Z,100.00
2023-02-18T04:10:30.555Z,99.96
2023-02-18T04:13:19.912Z,100.00
2023-02-18T04:16:07.041Z,98.81
2023-02-18T04:18:53.813Z,97.60
2023-02-18T04:21:40.142Z,97.08
2023-02-18T04:24:26.317Z,97.10
2023-02-18T04:27:12.848Z,96.75
2023-02-18T04:29:59.656Z,96.16
2023-02-18T04:32:46.248Z,96.12
2023-02-18T04:35:32.572Z,94.73
2023-02-18T04:38:18.726Z,94.97
2023-02-18T04:41:04.907Z,94.83
2023-02-18T04:43:51.465Z,94.95
2023-02-18T04:46:38.011Z,94.75
2023-02-18T04:49:24.237Z,95.01
2023-02-18T04:52:10.448Z,94.19
2023-02-18T04:54:58.038Z,93.93
2023-02-18T04:57:44.218Z,93.82
2023-02-18T05:00:30.540Z,94.25
2023-02-18T05:03:17.167Z,93.05
2023-02-18T05:06:03.676Z,93.11
2023-02-18T05:08:49.987Z,93.28
2023-02-18T05:11:36.539Z,93.02
2023-02-18T05:14:22.839Z,92.94
2023-02-18T05:17:09.393Z,92.78
2023-02-18T05:19:55.771Z,92.87
2023-02-18T05:22:43.011Z,92.74
2023-02-18T05:25:29.503Z,93.76
2023-02-18T05:28:16.074Z,93.97
2023-02-18T05:31:02.719Z,93.96
2023-02-18T05:33:49.438Z,94.01
2023-02-18T05:36:35.475Z,94.62
2023-02-18T05:39:22.114Z,94.10
2023-02-18T05:42:08.488Z,94.17
2023-02-18T05:44:54.944Z,93.65
2023-02-18T05:47:41.272Z,93.33
2023-02-18T05:50:27.712Z,92.95
2023-02-18T05:53:14.483Z,92.45
2023-02-18T05:56:01.853Z,92.88
2023-02-18T05:58:48.047Z,92.24
2023-02-18T06:01:34.286Z,92.54
2023-02-18T06:04:20.704Z,93.54
2023-02-18T06:07:07.016Z,93.97
2023-02-18T06:09:53.898Z,93.55
2023-02-18T06:12:40.419Z,93.21
2023-02-18T06:15:26.609Z,93.97
2023-02-18T06:18:13.009Z,94.11
2023-02-18T06:20:59.295Z,93.75
2023-02-18T06:23:45.514Z,94.16
2023-02-18T06:26:31.974Z,93.09
2023-02-18T06:29:18.332Z,92.09
2023-02-18T06:32:04.732Z,91.84
2023-02-18T06:34:51.314Z,91.00
2023-02-18T06:37:37.578Z,91.67
2023-02-18T06:40:24.024Z,91.54
2023-02-18T06:43:10.377Z,91.91
2023-02-18T06:45:56.999Z,91.84
2023-02-18T06:48:43.171Z,91.65
2023-02-18T06:51:32.697Z,91.55
2023-02-18T06:54:19.323Z,91.38
2023-02-18T06:57:05.791Z,91.82
2023-02-18T06:59:52.996Z,91.43
2023-02-18T07:02:39.513Z,91.67
2023-02-18T07:05:26.012Z,91.82
2023-02-18T07:08:12.576Z,91.09
2023-02-18T07:10:58.910Z,91.07
2023-02-18T07:13:45.116Z,92.21
2023-02-18T07:16:31.467Z,90.87
2023-02-18T07:19:18.297Z,90.96
2023-02-18T07:22:04.996Z,89.57
2023-02-18T07:24:54.905Z,89.19
2023-02-18T07:27:41.615Z,89.16
2023-02-18T07:30:28.014Z,87.97
2023-02-18T07:33:14.702Z,86.80
2023-02-18T07:36:02.048Z,87.24
2023-02-18T07:38:48.542Z,86.05
2023-02-18T07:41:35.036Z,86.16
2023-02-18T07:44:21.215Z,86.66
2023-02-18T07:47:08.937Z,85.75
2023-02-18T07:49:55.495Z,85.28
2023-02-18T07:52:41.793Z,84.56
2023-02-18T07:55:48.025Z,84.07
2023-02-18T07:58:37.181Z,84.86
2023-02-18T08:01:23.518Z,85.00
2023-02-18T08:04:10.039Z,84.91
2023-02-18T08:06:56.565Z,84.57
2023-02-18T08:09:43.136Z,84.37
2023-02-18T08:12:29.693Z,84.01
2023-02-18T08:15:16.451Z,84.31
2023-02-18T08:18:03.236Z,82.93
2023-02-18T08:20:51.758Z,83.02
2023-02-18T08:23:38.556Z,81.98
2023-02-18T08:26:25.513Z,82.00
2023-02-18T08:29:11.836Z,82.02
2023-02-18T08:31:59.531Z,82.34
2023-02-18T08:34:46.188Z,81.28
2023-02-18T08:37:52.685Z,81.03
2023-02-18T08:40:40.833Z,80.93
2023-02-18T08:43:27.050Z,81.06
2023-02-18T08:46:16.529Z,80.93
2023-02-18T08:49:20.886Z,80.23
2023-02-18T08:52:06.961Z,80.53
2023-02-18T08:54:53.327Z,80.24
2023-02-18T08:57:39.761Z,80.49
2023-02-18T09:00:26.384Z,81.33
2023-02-18T09:03:14.661Z,80.67
2023-02-18T09:06:01.705Z,81.01
2023-02-18T09:08:48.340Z,80.69
2023-02-18T09:11:34.678Z,80.09
2023-02-18T09:14:21.434Z,80.25
2023-02-18T09:17:07.660Z,80.50
2023-02-18T09:19:54.320Z,80.69
2023-02-18T09:22:40.785Z,80.19
2023-02-18T09:25:27.074Z,79.47
2023-02-18T09:28:13.552Z,80.12
2023-02-18T09:31:11.910Z,80.33
2023-02-18T09:34:01.848Z,79.79
2023-02-18T09:36:48.264Z,79.35
2023-02-18T09:39:34.866Z,79.60
2023-02-18T09:42:28.138Z,80.69
2023-02-18T09:45:16.499Z,80.47
2023-02-18T09:48:06.217Z,79.63
2023-02-18T09:50:53.706Z,79.86
2023-02-18T09:53:42.404Z,79.47
2023-02-18T09:56:33.720Z,78.97
2023-02-18T09:59:23.194Z,78.66
2023-02-18T10:02:17.426Z,78.68
2023-02-18T10:05:04.875Z,77.62
2023-02-18T10:07:56.444Z,78.18
2023-02-18T10:10:46.416Z,77.92
2023-02-18T10:13:34.741Z,77.41
2023-02-18T10:16:23.299Z,77.65
2023-02-18T10:19:33.138Z,77.86
2023-02-18T10:22:21.432Z,78.13
2023-02-18T10:25:08.735Z,77.59
2023-02-18T10:27:57.360Z,77.38
2023-02-18T10:30:52.762Z,77.25
2023-02-18T10:33:48.038Z,78.16
2023-02-18T10:36:55.894Z,78.46
2023-02-18T10:39:50.992Z,79.00
2023-02-18T10:42:49.705Z,78.65
2023-02-18T10:46:02.146Z,78.62
2023-02-18T10:48:54.557Z,79.58
2023-02-18T10:51:50.260Z,79.11
2023-02-18T10:55:09.315Z,78.32
2023-02-18T10:57:57.204Z,77.91
2023-02-18T11:00:44.800Z,78.11
2023-02-18T11:03:45.918Z,77.98
2023-02-18T11:06:32.472Z,77.40
2023-02-18T11:09:48.055Z,77.17
2023-02-18T11:12:48.008Z,77.06
2023-02-18T11:15:35.600Z,76.13
2023-02-18T11:18:37.847Z,77.66
2023-02-18T11:21:35.851Z,78.02
2023-02-18T11:24:22.057Z,79.12
2023-02-18T11:27:12.492Z,79.90
2023-02-18T11:30:04.019Z,79.59
2023-02-18T11:32:56.880Z,79.05
2023-02-18T11:35:50.242Z,79.18
2023-02-18T11:38:42.066Z,79.45
2023-02-18T11:41:42.415Z,79.62
2023-02-18T11:44:34.293Z,80.26
2023-02-18T11:47:24.057Z,78.46
2023-02-18T11:50:10.414Z,78.92
2023-02-18T11:52:58.994Z,79.62
2023-02-18T11:55:56.267Z,80.12
2023-02-18T11:58:47.999Z,82.14
2023-02-18T12:01:40.559Z,81.60
2023-02-18T12:04:38.933Z,81.95
2023-02-18T12:07:37.627Z,81.94
2023-02-18T12:10:45.908Z,81.72
2023-02-18T12:13:38.071Z,80.87
2023-02-18T12:16:46.564Z,80.31
2023-02-18T12:19:58.955Z,80.92
2023-02-18T12:22:57.593Z,81.32
2023-02-18T12:25:46.658Z,81.84
2023-02-18T12:28:55.607Z,82.43
2023-02-18T12:31:48.030Z,83.04
2023-02-18T12:34:52.911Z,83.05
2023-02-18T12:38:00.668Z,82.20
2023-02-18T12:41:10.336Z,82.29
2023-02-18T12:44:27.510Z,82.74
2023-02-18T12:47:32.466Z,82.32
2023-02-18T12:50:51.395Z,83.53
2023-02-18T12:54:19.349Z,83.65
2023-02-18T12:57:28.815Z,83.16
2023-02-18T13:00:24.572Z,82.85
2023-02-18T13:03:48.450Z,83.52
2023-02-18T13:06:52.811Z,83.83
2023-02-18T13:10:16.989Z,83.75
2023-02-18T13:13:20.447Z,83.91
2023-02-18T13:16:11.838Z,83.26
2023-02-18T13:19:21.688Z,83.00
2023-02-18T13:22:11.860Z,82.57
2023-02-18T13:24:59.706Z,82.48
2023-02-18T13:28:18.590Z,82.24
2023-02-18T13:31:19.336Z,82.45
2023-02-18T13:34:21.484Z,82.38
2023-02-18T13:37:40.818Z,82.55
2023-02-18T13:40:30.537Z,83.52
2023-02-18T13:43:30.338Z,83.20
2023-02-18T13:46:19.841Z,83.80
2023-02-18T13:49:13.491Z,84.08
2023-02-18T13:52:02.826Z,83.62
2023-02-18T13:54:51.761Z,83.36
2023-02-18T13:57:39.178Z,83.72
2023-02-18T14:00:36.423Z,83.46
2023-02-18T14:03:50.383Z,84.09
2023-02-18T14:06:39.067Z,84.17
2023-02-18T14:09:25.605Z,83.87
2023-02-18T14:12:42.514Z,84.12
2023-02-18T14:15:29.964Z,84.78
2023-02-18T14:18:39.423Z,83.64
2023-02-18T14:21:38.188Z,83.47
2023-02-18T14:24:46.744Z,83.06
2023-02-18T14:27:33.577Z,83.28
2023-02-18T14:30:24.771Z,84.14
2023-02-18T14:33:15.877Z,83.35
2023-02-18T14:36:30.440Z,84.18
2023-02-18T14:39:41.311Z,83.98
2023-02-18T14:42:49.243Z,83.30
2023-02-18T14:45:47.667Z,83.48
2023-02-18T14:49:03.180Z,84.18
2023-02-18T14:51:52.086Z,83.56
2023-02-18T14:54:41.347Z,83.22
2023-02-18T14:57:40.859Z,83.90
2023-02-18T15:00:32.236Z,82.07
2023-02-18T15:03:22.215Z,81.72
2023-02-18T15:06:26.587Z,81.24
2023-02-18T15:09:15.107Z,81.31
2023-02-18T15:12:05.551Z,80.92
2023-02-18T15:14:53.700Z,80.76
2023-02-18T15:17:46.136Z,81.33
2023-02-18T15:20:34.922Z,81.75
2023-02-18T15:23:21.493Z,81.44
2023-02-18T15:26:13.199Z,82.41
2023-02-18T15:29:00.896Z,81.94
2023-02-18T15:31:48.857Z,81.67
2023-02-18T15:34:39.520Z,82.25
2023-02-18T15:37:25.696Z,81.68
2023-02-18T15:40:16.679Z,81.86
2023-02-18T15:43:06.113Z,82.33
2023-02-18T15:45:56.010Z,82.60
2023-02-18T15:48:48.203Z,82.46
2023-02-18T15:51:34.659Z,82.78
2023-02-18T15:54:23.131Z,83.79
2023-02-18T15:57:14.541Z,83.46
2023-02-18T16:00:16.085Z,84.33
2023-02-18T16:03:04.252Z,84.87
2023-02-18T16:06:07.000Z,85.45
2023-02-18T16:09:03.736Z,85.44
2023-02-18T16:11:56.979Z,86.12
2023-02-18T16:14:50.148Z,86.72
2023-02-18T16:17:36.623Z,87.02
2023-02-18T16:20:36.360Z,86.98
2023-02-18T16:23:29.974Z,87.07
2023-02-18T16:26:26.636Z,87.57
2023-02-18T16:29:16.501Z,88.13
2023-02-18T16:32:03.572Z,87.98
2023-02-18T16:34:50.159Z,88.89
2023-02-18T16:37:39.497Z,89.13
2023-02-18T16:40:32.588Z,89.50
2023-02-18T16:43:24.918Z,89.58
2023-02-18T16:46:21.713Z,89.63
2023-02-18T16:49:14.074Z,89.38
2023-02-18T16:52:05.679Z,89.62
2023-02-18T16:54:53.441Z,89.06
2023-02-18T16:57:39.705Z,89.57
2023-02-18T17:00:25.998Z,90.04
2023-02-18T17:03:13.274Z,90.59
2023-02-18T17:05:59.898Z,91.05
2023-02-18T17:08:47.193Z,91.30
2023-02-18T17:11:35.383Z,91.27
2023-02-18T17:14:23.466Z,92.10
2023-02-18T17:17:17.872Z,92.82
2023-02-18T17:20:04.676Z,92.86
2023-02-18T17:22:51.393Z,93.32
2023-02-18T17:25:39.974Z,93.63
2023-02-18T17:28:26.521Z,94.03
2023-02-18T17:31:21.184Z,94.53
2023-02-18T17:34:12.389Z,94.84
2023-02-18T17:36:58.969Z,95.11
2023-02-18T17:39:45.204Z,95.22
2023-02-18T17:42:35.442Z,94.94
2023-02-18T17:45:32.740Z,95.05
2023-02-18T17:48:19.597Z,95.59
2023-02-18T17:51:07.592Z,95.44
2023-02-18T17:53:54.265Z,96.40
2023-02-18T17:56:41.659Z,96.13
2023-02-18T17:59:29.856Z,96.53
2023-02-18T18:02:28.473Z,96.92
2023-02-18T18:05:19.967Z,97.21
2023-02-18T18:08:07.549Z,97.14
2023-02-18T18:10:57.140Z,97.34
2023-02-18T18:13:43.905Z,97.59
2023-02-18T18:16:30.087Z,99.22
2023-02-18T18:19:16.546Z,99.24
2023-02-18T18:22:02.996Z,99.70
2023-02-18T18:24:50.250Z,99.77
2023-02-18T18:27:36.601Z,99.06
2023-02-18T18:30:26.063Z,98.93
2023-02-18T18:33:25.152Z,99.12
2023-02-18T18:36:11.629Z,99.56
2023-02-18T18:38:57.961Z,99.41
2023-02-18T18:41:44.049Z,100.00
2023-02-18T18:44:30.412Z,100.00
2023-02-18T18:47:16.876Z,99.96
2023-02-18T18:50:03.150Z,100.00
2023-02-18T18:52:51.803Z,100.00
2023-02-18T18:55:40.717Z,100.00
2023-02-18T18:58:27.147Z,100.00
2023-02-18T19:01:19.541Z,100.00
2023-02-18T19:04:05.781Z,100.00
2023-02-18T19:06:52.400Z,100.00
2023-02-18T19:09:38.906Z,100.00
2023-02-18T19:12:25.180Z,100.00
2023-02-18T19:15:18.532Z,100.00
2023-02-18T19:18:07.053Z,100.00
2023-02-18T19:20:53.839Z,100.00
2023-02-18T19:23:40.829Z,100.00
2023-02-18T19:26:28.039Z,100.00
2023-02-18T19:29:14.620Z,100.00
2023-02-18T19:32:00.903Z,100.00
2023-02-18T19:34:47.285Z,100.00
2023-02-18T19:37:34.868Z,100.00
2023-02-18T19:40:24.121Z,100.00
2023-02-18T19:43:11.490Z,100.00
2023-02-18T19:45:57.804Z,100.00
2023-02-18T19:48:49.401Z,100.00
2023-02-18T19:51:35.717Z,100.00
2023-02-18T19:54:22.258Z,100.00
2023-02-18T19:57:08.436Z,100.00
2023-02-18T19:59:54.758Z,100.00
2023-02-18T20:02:41.856Z,100.00
2023-02-18T20:05:28.156Z,100.00
2023-02-18T20:08:14.604Z,100.00
2023-02-18T20:11:00.767Z,100.00
2023-02-18T20:13:48.490Z,100.00
2023-02-18T20:16:34.676Z,100.00
2023-02-18T20:19:21.711Z,100.00
2023-02-18T20:22:10.281Z,100.00
2023-02-18T20:24:56.561Z,100.00
2023-02-18T20:27:59.559Z,100.00
2023-02-18T20:30:47.287Z,100.00
2023-02-18T20:33:33.837Z,100.00
2023-02-18T20:36:20.151Z,100.00
2023-02-18T20:39:15.600Z,100.00
2023-02-18T20:42:11.157Z,100.00
2023-02-18T20:45:02.081Z,100.00
2023-02-18T20:47:48.652Z,100.00
2023-02-18T20:50:35.048Z,100.00
2023-02-18T20:53:21.329Z,100.00
2023-02-18T20:56:08.477Z,100.00
2023-02-18T20:58:54.943Z,100.00
2023-02-18T21:01:43.256Z,100.00
2023-02-18T21:04:29.568Z,100.00
2023-02-18T21:07:15.783Z,100.00
2023-02-18T21:10:04.042Z,100.00
2023-02-18T21:12:50.301Z,100.00
2023-02-18T21:15:37.466Z,100.00
2023-02-18T21:18:24.619Z,100.00
2023-02-18T21:21:12.101Z,100.00
2023-02-18T21:23:58.598Z,100.00
2023-02-18T21:26:44.877Z,100.00
2023-02-18T21:29:32.260Z,100.00
2023-02-18T21:32:18.856Z,100.00
2023-02-18T21:35:06.209Z,100.00
2023-02-18T21:37:52.762Z,100.00
2023-02-18T21:40:39.055Z,100.00
2023-02-18T21:43:26.636Z,100.00
2023-02-18T21:46:22.558Z,100.00
2023-02-18T21:49:10.783Z,100.00
2023-02-18T21:51:57.638Z,100.00
2023-02-18T21:54:44.573Z,100.00
2023-02-18T21:57:32.154Z,100.00
2023-02-18T22:00:20.753Z,100.00
2023-02-18T22:03:07.670Z,100.00
2023-02-18T22:05:54.273Z,100.00
2023-02-18T22:08:40.482Z,100.00
2023-02-18T22:11:26.907Z,100.00
2023-02-18T22:14:14.972Z,100.00
2023-02-18T22:17:01.344Z,100.00
2023-02-18T22:19:48.746Z,100.00
2023-02-18T22:22:34.987Z,100.00
2023-02-18T22:25:21.385Z,100.00
2023-02-18T22:28:07.594Z,100.00
2023-02-18T22:30:54.048Z,100.00
2023-02-18T22:33:41.277Z,100.00
2023-02-18T22:36:29.346Z,100.00
2023-02-18T22:39:16.444Z,100.00
2023-02-18T22:42:02.919Z,100.00
2023-02-18T22:44:49.378Z,100.00
2023-02-18T22:47:35.711Z,100.00
2023-02-18T22:50:22.432Z,100.00
2023-02-18T22:53:08.755Z,100.00
2023-02-18T22:55:59.677Z,100.00
2023-02-18T22:58:47.875Z,100.00
2023-02-18T23:01:40.092Z,100.00
2023-02-18T23:04:26.584Z,100.00
2023-02-18T23:07:13.078Z,100.00
2023-02-18T23:09:59.307Z,100.00
2023-02-18T23:12:45.691Z,100.00
2023-02-18T23:15:31.965Z,100.00
2023-02-18T23:18:18.227Z,100.00
2023-02-18T23:21:18.407Z,100.00
2023-02-18T23:24:05.255Z,100.00
2023-02-18T23:26:51.638Z,100.00
2023-02-18T23:29:38.203Z,100.00
2023-02-18T23:32:25.854Z,100.00
2023-02-18T23:35:11.999Z,100.00
2023-02-18T23:38:04.408Z,100.00
2023-02-18T23:40:50.972Z,100.00
2023-02-18T23:43:37.451Z,100.00
2023-02-18T23:46:26.475Z,100.00
2023-02-18T23:49:15.438Z,100.00
2023-02-18T23:52:01.920Z,100.00
2023-02-18T23:54:48.348Z,100.00
2023-02-18T23:57:34.961Z,100.00
